Time;durP1;ratioP1;P1;durP2;ratioP2;P2;SDS_P1;SDS_P2;PMS_P1;PMS_P2;Temp;Humidity;BMP_temperature;BMP_pressure;BME280_temperature;BME280_humidity;BME280_pressure;Samples;Min_cycle;Max_cycle;Signal;HPM_P1;HPM_P2
2022/08/25 00:01:07;;;;;;;5.57;2.90;;;22.40;91.20;;;;;;4999292;28;20177;-79
2022/08/25 00:03:33;;;;;;;5.78;2.70;;;22.30;91.30;;;;;;4997939;28;20179;-79
2022/08/25 00:05:59;;;;;;;3.65;2.80;;;22.20;91.50;;;;;;4998866;28;20217;-79
2022/08/25 00:08:24;;;;;;;5.85;3.05;;;22.30;91.30;;;;;;4998663;28;20178;-79
2022/08/25 00:10:50;;;;;;;9.88;3.22;;;22.30;90.60;;;;;;4999296;28;20195;-79
2022/08/25 00:13:16;;;;;;;6.28;3.17;;;22.30;91.30;;;;;;4998473;28;20174;-79
2022/08/25 00:15:41;;;;;;;5.97;2.92;;;22.20;91.30;;;;;;4998713;28;20195;-79
2022/08/25 00:18:07;;;;;;;6.35;2.95;;;22.20;90.80;;;;;;4998501;28;20562;-81
2022/08/25 00:20:32;;;;;;;3.88;3.40;;;22.10;91.70;;;;;;5000999;28;20170;-80
2022/08/25 00:22:58;;;;;;;6.50;3.05;;;21.90;91.90;;;;;;5000538;28;20197;-79
2022/08/25 00:25:24;;;;;;;6.85;3.30;;;21.90;91.60;;;;;;5000754;28;20220;-81
2022/08/25 00:27:50;;;;;;;5.88;3.17;;;21.80;91.90;;;;;;4999992;28;20209;-80
2022/08/25 00:30:17;;;;;;;9.50;3.40;;;22.00;91.90;;;;;;5000392;28;20167;-80
2022/08/25 00:32:44;;;;;;;6.20;3.13;;;21.90;92.00;;;;;;5000122;28;20174;-80
2022/08/25 00:35:10;;;;;;;12.13;3.65;;;22.00;91.70;;;;;;5000203;28;20175;-79
2022/08/25 00:37:36;;;;;;;5.00;3.00;;;21.90;91.90;;;;;;4999939;28;20202;-80
2022/08/25 00:40:03;;;;;;;6.60;3.40;;;21.80;91.60;;;;;;5000532;28;20549;-80
2022/08/25 00:42:30;;;;;;;9.15;3.08;;;21.80;91.70;;;;;;4999821;28;20171;-80
2022/08/25 00:44:57;;;;;;;9.02;3.40;;;21.80;91.70;;;;;;4999599;28;20656;-80
2022/08/25 00:47:23;;;;;;;4.68;3.03;;;21.80;92.10;;;;;;5034248;23;20709;-84
2022/08/25 00:49:53;;;;;;;7.13;3.10;;;21.80;92.20;;;;;;5055627;28;20197;-84
2022/08/25 00:52:28;;;;;;;5.35;3.03;;;21.70;92.10;;;;;;5026292;28;20197;-84
2022/08/25 00:55:05;;;;;;;6.45;3.05;;;21.70;92.10;;;;;;5028165;28;20166;-84
2022/08/25 00:57:41;;;;;;;6.00;3.20;;;21.70;92.00;;;;;;5045963;28;20254;-84
2022/08/25 01:00:15;;;;;;;5.50;3.38;;;21.50;92.50;;;;;;5026150;28;20201;-84
2022/08/25 01:02:44;;;;;;;6.55;3.15;;;21.60;92.30;;;;;;5031038;23;20689;-84
2022/08/25 01:05:11;;;;;;;6.78;3.08;;;21.60;91.90;;;;;;5040370;28;20170;-84
2022/08/25 01:07:38;;;;;;;12.20;2.97;;;21.60;91.80;;;;;;5022866;28;20202;-84
2022/08/25 01:10:06;;;;;;;6.00;2.80;;;21.70;91.60;;;;;;5022761;28;20177;-84
2022/08/25 01:12:33;;;;;;;6.55;3.17;;;21.70;91.60;;;;;;5023127;28;20604;-84
2022/08/25 01:15:00;;;;;;;7.60;3.03;;;21.70;91.80;;;;;;5020889;28;20170;-84
2022/08/25 01:17:44;;;;;;;4.22;3.10;;;21.70;91.30;;;;;;5022373;28;20270;-84
2022/08/25 01:20:10;;;;;;;6.20;3.40;;;21.70;91.80;;;;;;5022189;28;20174;-84
2022/08/25 01:22:36;;;;;;;7.30;3.10;;;21.60;91.80;;;;;;5021709;28;20174;-84
2022/08/25 01:25:12;;;;;;;3.83;3.13;;;21.50;91.90;;;;;;5022553;28;20184;-84
2022/08/25 01:27:38;;;;;;;5.97;2.92;;;21.50;91.90;;;;;;5023112;28;20588;-84
2022/08/25 01:30:04;;;;;;;3.95;2.80;;;21.40;92.00;;;;;;5023678;28;20649;-84
2022/08/25 01:32:33;;;;;;;5.28;3.20;;;21.50;91.70;;;;;;5022186;28;20173;-84
2022/08/25 01:34:59;;;;;;;7.28;3.25;;;21.40;92.10;;;;;;5040201;28;20253;-83
2022/08/25 01:37:25;;;;;;;7.93;3.00;;;21.30;92.00;;;;;;5021278;28;20225;-83
2022/08/25 01:39:50;;;;;;;6.90;3.10;;;21.40;91.70;;;;;;5041527;28;20162;-83
2022/08/25 01:42:31;;;;;;;7.32;3.17;;;21.40;91.80;;;;;;5022287;28;20220;-83
2022/08/25 01:44:57;;;;;;;7.93;3.38;;;21.30;92.00;;;;;;5021724;28;20323;-83
2022/08/25 01:47:23;;;;;;;5.88;3.20;;;21.20;92.60;;;;;;5022263;28;20225;-84
2022/08/25 01:49:48;;;;;;;7.57;3.08;;;21.10;92.30;;;;;;5022651;28;20224;-83
2022/08/25 01:52:27;;;;;;;11.13;3.42;;;21.20;92.30;;;;;;5021684;28;20209;-83
2022/08/25 01:54:52;;;;;;;10.27;3.40;;;21.20;92.50;;;;;;5022052;28;20649;-83
2022/08/25 01:57:18;;;;;;;7.13;3.10;;;21.10;93.00;;;;;;5021018;28;20280;-83
2022/08/25 01:59:44;;;;;;;7.32;3.50;;;21.10;92.90;;;;;;5021856;28;20170;-83
2022/08/25 02:02:10;;;;;;;7.78;3.03;;;21.00;92.90;;;;;;5020814;28;20190;-83
2022/08/25 02:04:36;;;;;;;4.78;2.78;;;21.10;92.80;;;;;;5020985;28;20174;-83
2022/08/25 02:07:04;;;;;;;7.15;2.95;;;21.10;92.90;;;;;;5022264;28;20690;-83
2022/08/25 02:09:30;;;;;;;8.98;3.15;;;20.90;93.00;;;;;;5021314;28;20169;-83
2022/08/25 02:11:56;;;;;;;4.85;3.00;;;21.00;92.80;;;;;;5020481;28;20197;-83
2022/08/25 02:14:22;;;;;;;7.28;3.35;;;21.10;92.80;;;;;;5020459;28;20223;-83
2022/08/25 02:16:50;;;;;;;8.75;3.33;;;21.00;93.00;;;;;;5021038;28;20196;-83
2022/08/25 02:19:17;;;;;;;8.98;3.10;;;21.00;92.60;;;;;;5021244;28;20178;-83
2022/08/25 02:21:42;;;;;;;4.47;2.97;;;21.10;92.40;;;;;;5020334;28;20212;-83
2022/08/25 02:24:09;;;;;;;8.68;2.83;;;21.00;92.80;;;;;;5020569;28;20174;-83
2022/08/25 02:26:35;;;;;;;5.47;3.20;;;20.90;93.30;;;;;;5020350;28;20275;-83
2022/08/25 02:29:01;;;;;;;13.50;3.95;;;20.80;92.90;;;;;;5020127;28;20174;-83
2022/08/25 02:31:27;;;;;;;4.60;3.20;;;20.90;93.20;;;;;;5038244;28;20634;-83
2022/08/25 02:33:54;;;;;;;6.80;3.10;;;20.90;93.00;;;;;;5020354;28;20166;-83
2022/08/25 02:36:20;;;;;;;8.15;3.25;;;20.80;93.00;;;;;;5020080;28;20194;-83
2022/08/25 02:38:46;;;;;;;8.27;3.00;;;20.90;92.90;;;;;;5020579;28;20170;-83
2022/08/25 02:41:22;;;;;;;8.70;3.50;;;20.70;93.10;;;;;;5019407;28;20258;-83
2022/08/25 02:43:50;;;;;;;4.40;3.00;;;20.60;93.80;;;;;;5019967;28;20174;-83
2022/08/25 02:46:18;;;;;;;8.80;3.22;;;20.60;93.70;;;;;;5018677;28;20198;-83
2022/08/25 02:48:46;;;;;;;7.33;3.37;;;20.70;93.30;;;;;;5019231;28;20170;-83
2022/08/25 02:51:13;;;;;;;10.05;3.40;;;20.70;93.70;;;;;;5018642;28;20201;-83
2022/08/25 02:53:40;;;;;;;7.15;3.13;;;20.70;93.40;;;;;;5018326;28;20238;-83
2022/08/25 02:56:08;;;;;;;8.03;3.40;;;20.70;93.70;;;;;;5017746;28;20186;-83
2022/08/25 02:58:34;;;;;;;5.28;3.20;;;20.70;93.60;;;;;;5017948;28;20212;-84
2022/08/25 03:01:00;;;;;;;10.75;3.17;;;20.60;94.00;;;;;;5017632;28;20549;-83
2022/08/25 03:03:25;;;;;;;7.00;3.53;;;20.50;93.90;;;;;;5017536;28;20170;-83
2022/08/25 03:05:51;;;;;;;4.65;3.28;;;20.70;93.80;;;;;;5019747;28;20198;-83
2022/08/25 03:08:17;;;;;;;4.72;3.60;;;20.60;94.10;;;;;;5039360;28;20198;-83
2022/08/25 03:10:43;;;;;;;8.93;3.03;;;20.40;94.30;;;;;;5021444;28;20174;-83
2022/08/25 03:13:08;;;;;;;5.20;3.20;;;20.50;94.30;;;;;;5021228;28;20179;-83
2022/08/25 03:15:36;;;;;;;10.75;3.80;;;20.50;94.40;;;;;;5021268;28;20220;-83
2022/08/25 03:18:04;;;;;;;11.00;3.20;;;20.40;94.30;;;;;;5020705;28;20185;-83
2022/08/25 03:20:30;;;;;;;5.57;3.40;;;20.40;94.30;;;;;;5020478;28;20527;-83
2022/08/25 03:22:56;;;;;;;9.40;3.63;;;20.40;94.40;;;;;;5019265;28;20185;-83
2022/08/25 03:28:06;;;;;;;6.67;3.53;;;20.30;94.80;;;;;;5039215;28;20197;-83
2022/08/25 03:30:33;;;;;;;6.23;3.40;;;20.20;94.90;;;;;;5021499;28;20261;-83
2022/08/25 03:32:59;;;;;;;7.68;3.47;;;20.00;95.30;;;;;;5021030;28;20162;-83
2022/08/25 03:35:24;;;;;;;6.57;3.27;;;20.10;95.10;;;;;;5037927;28;20178;-83
2022/08/25 03:37:53;;;;;;;7.63;3.63;;;20.10;95.00;;;;;;5019589;28;20174;-83
2022/08/25 03:40:22;;;;;;;6.70;3.43;;;20.10;95.00;;;;;;5019458;28;20173;-83
2022/08/25 03:42:48;;;;;;;6.03;3.73;;;20.10;95.20;;;;;;5018515;28;20188;-83
2022/08/25 03:45:15;;;;;;;8.13;4.03;;;19.90;95.40;;;;;;5018285;28;20178;-83
2022/08/25 03:47:44;;;;;;;9.90;3.80;;;19.90;95.60;;;;;;5018011;28;20566;-83
2022/08/25 03:50:11;;;;;;;7.60;4.20;;;19.90;96.20;;;;;;5018470;28;20647;-83
2022/08/25 03:52:37;;;;;;;6.57;4.13;;;19.90;96.00;;;;;;5017945;28;20177;-83
2022/08/25 03:55:06;;;;;;;9.23;4.50;;;20.00;95.70;;;;;;5018154;28;20170;-83
2022/08/25 03:57:32;;;;;;;7.87;4.10;;;20.10;95.90;;;;;;5018258;28;20759;-83
2022/08/25 03:59:57;;;;;;;7.27;4.27;;;20.00;96.30;;;;;;5019088;28;20208;-83
2022/08/25 04:02:23;;;;;;;12.53;4.23;;;19.90;96.50;;;;;;5018462;28;20193;-83
2022/08/25 04:04:49;;;;;;;12.07;4.60;;;19.80;96.40;;;;;;5018853;28;20626;-83
2022/08/25 04:07:15;;;;;;;9.93;4.10;;;19.80;96.60;;;;;;5018759;28;20201;-83
2022/08/25 04:09:41;;;;;;;14.60;4.60;;;19.80;96.30;;;;;;5018672;28;20181;-83
2022/08/25 04:12:06;;;;;;;10.23;4.43;;;19.80;96.40;;;;;;5018545;28;20631;-83
2022/08/25 04:14:32;;;;;;;6.40;4.40;;;19.80;96.30;;;;;;5019201;28;20166;-83
2022/08/25 04:16:58;;;;;;;9.37;4.80;;;19.90;96.10;;;;;;5018769;28;20662;-83
2022/08/25 04:19:23;;;;;;;10.20;4.70;;;19.80;96.30;;;;;;5019539;28;20178;-83
2022/08/25 04:21:50;;;;;;;13.83;5.10;;;19.90;96.10;;;;;;5019393;28;20537;-83
2022/08/25 04:24:16;;;;;;;8.47;4.83;;;19.90;95.80;;;;;;5019331;28;20174;-83
2022/08/25 04:26:48;;;;;;;9.07;5.37;;;20.00;95.50;;;;;;5019210;28;20267;-83
2022/08/25 04:29:16;;;;;;;13.30;5.10;;;19.80;96.10;;;;;;5018915;28;20177;-84
2022/08/25 04:31:45;;;;;;;13.87;5.07;;;19.90;96.20;;;;;;5019781;28;20181;-83
2022/08/25 04:34:12;;;;;;;9.67;4.80;;;19.70;96.70;;;;;;5021245;28;20174;-83
2022/08/25 04:36:38;;;;;;;13.50;5.73;;;19.70;96.70;;;;;;5020522;28;20205;-83
2022/08/25 04:39:04;;;;;;;10.53;4.67;;;19.80;96.90;;;;;;5019805;28;20182;-83
2022/08/25 04:41:30;;;;;;;9.57;4.60;;;19.60;97.10;;;;;;5018660;28;20174;-83
2022/08/25 04:43:58;;;;;;;9.03;4.80;;;19.60;96.80;;;;;;5019372;28;20265;-83
2022/08/25 04:46:26;;;;;;;9.03;4.23;;;19.70;96.90;;;;;;5019564;28;20201;-83
2022/08/25 04:48:53;;;;;;;11.83;4.77;;;19.70;97.20;;;;;;5019779;28;20171;-83
2022/08/25 04:51:25;;;;;;;11.40;4.43;;;19.60;97.30;;;;;;5019601;28;20184;-83
2022/08/25 04:53:51;;;;;;;10.70;4.30;;;19.80;97.00;;;;;;5036094;28;20858;-83
2022/08/25 04:56:21;;;;;;;9.37;5.17;;;19.80;96.70;;;;;;5018905;28;20204;-83
2022/08/25 04:58:47;;;;;;;15.30;4.70;;;19.80;97.10;;;;;;5019198;28;20173;-83
2022/08/25 05:01:17;;;;;;;7.53;4.20;;;19.70;97.80;;;;;;5018379;28;20550;-83
2022/08/25 05:03:44;;;;;;;10.77;4.67;;;19.80;97.30;;;;;;5018912;28;20177;-83
2022/08/25 05:06:10;;;;;;;5.27;4.57;;;19.80;97.10;;;;;;5018336;28;20199;-83
2022/08/25 05:08:36;;;;;;;8.53;4.77;;;19.90;97.20;;;;;;5018648;28;20178;-83
2022/08/25 05:11:13;;;;;;;12.23;4.60;;;19.90;97.20;;;;;;5018484;28;20174;-83
2022/08/25 05:13:39;;;;;;;11.47;4.17;;;19.90;97.10;;;;;;5018654;28;20170;-83
2022/08/25 05:16:05;;;;;;;6.67;4.40;;;19.90;97.30;;;;;;5018792;28;20198;-84
2022/08/25 05:18:32;;;;;;;16.50;4.60;;;19.80;97.80;;;;;;5018405;28;20270;-83
2022/08/25 05:21:09;;;;;;;9.67;4.60;;;20.10;97.10;;;;;;5018821;28;20170;-83
2022/08/25 05:23:36;;;;;;;14.57;5.17;;;20.00;97.20;;;;;;5017660;28;20231;-84
2022/08/25 05:26:06;;;;;;;9.13;4.33;;;20.10;97.40;;;;;;5017095;28;20661;-84
2022/08/25 05:28:32;;;;;;;15.00;5.10;;;20.10;97.50;;;;;;5016852;28;20198;-84
2022/08/25 05:31:00;;;;;;;13.60;4.60;;;20.00;97.50;;;;;;5017446;28;20174;-84
2022/08/25 05:33:26;;;;;;;15.10;5.03;;;20.30;97.50;;;;;;5016982;28;20666;-84
2022/08/25 05:35:52;;;;;;;9.60;4.60;;;20.30;97.20;;;;;;5016856;28;20608;-85
2022/08/25 05:38:18;;;;;;;15.70;4.83;;;20.50;97.40;;;;;;5016810;28;20262;-84
2022/08/25 05:40:44;;;;;;;7.70;4.57;;;20.50;97.30;;;;;;5016889;28;20177;-84
2022/08/25 05:43:11;;;;;;;9.32;4.60;;;20.60;97.00;;;;;;5016618;28;20181;-84
2022/08/25 05:45:36;;;;;;;12.07;4.97;;;20.80;97.20;;;;;;5016417;28;20546;-84
2022/08/25 05:48:02;;;;;;;12.20;4.70;;;20.90;97.00;;;;;;5016120;28;20197;-84
2022/08/25 05:50:28;;;;;;;11.45;4.80;;;20.90;97.20;;;;;;5016345;28;20181;-84
2022/08/25 05:52:53;;;;;;;13.65;4.45;;;21.10;97.10;;;;;;5016095;28;20630;-84
2022/08/25 05:55:19;;;;;;;8.38;4.30;;;21.30;97.00;;;;;;5016237;28;20217;-84
2022/08/25 05:57:45;;;;;;;15.20;4.53;;;21.40;96.40;;;;;;5015788;28;20185;-84
2022/08/25 06:00:11;;;;;;;13.07;4.88;;;21.40;96.70;;;;;;5016368;28;20189;-84
2022/08/25 06:02:42;;;;;;;14.48;5.25;;;21.60;96.70;;;;;;5018006;28;20194;-84
2022/08/25 06:05:17;;;;;;;8.32;4.65;;;21.50;97.10;;;;;;5017278;28;20166;-84
2022/08/25 06:07:44;;;;;;;11.77;5.50;;;21.80;96.60;;;;;;5015398;28;20266;-83
2022/08/25 06:10:11;;;;;;;13.18;5.00;;;21.90;96.20;;;;;;5016296;28;20166;-83
2022/08/25 06:12:38;;;;;;;15.85;4.53;;;22.30;96.10;;;;;;5015994;28;20169;-83
2022/08/25 06:15:04;;;;;;;10.55;4.63;;;22.90;95.60;;;;;;5021703;28;20166;-84
2022/08/25 06:17:30;;;;;;;16.67;4.10;;;23.10;94.70;;;;;;5018712;28;20201;-81
2022/08/25 06:19:56;;;;;;;10.13;4.72;;;23.50;94.70;;;;;;5017336;28;20535;-81
2022/08/25 06:22:24;;;;;;;9.23;4.38;;;23.20;94.50;;;;;;5016490;28;20184;-81
2022/08/25 06:24:50;;;;;;;6.97;3.92;;;24.00;94.00;;;;;;5015973;28;20619;-78
2022/08/25 06:27:16;;;;;;;12.20;3.92;;;24.30;94.10;;;;;;5019620;28;20237;-80
2022/08/25 06:29:42;;;;;;;12.23;4.38;;;24.80;93.60;;;;;;5020152;28;20742;-80
2022/08/25 06:32:07;;;;;;;8.95;4.07;;;24.90;93.20;;;;;;5020377;28;20177;-80
2022/08/25 06:34:33;;;;;;;11.98;4.00;;;24.90;93.00;;;;;;5020167;28;20174;-79
2022/08/25 06:36:59;;;;;;;10.27;3.88;;;25.10;92.70;;;;;;5019505;28;20292;-79
2022/08/25 06:39:24;;;;;;;8.38;3.72;;;25.30;93.20;;;;;;5019442;28;20177;-79
2022/08/25 06:41:52;;;;;;;11.02;4.47;;;25.70;92.40;;;;;;5019354;28;20182;-80
2022/08/25 06:44:18;;;;;;;10.85;3.90;;;25.30;92.50;;;;;;5019052;28;20556;-79
2022/08/25 06:46:43;;;;;;;8.90;3.70;;;25.60;92.90;;;;;;5019311;28;20214;-79
2022/08/25 06:49:09;;;;;;;9.85;3.65;;;26.10;92.70;;;;;;5031095;23;20225;-83
2022/08/25 06:51:34;;;;;;;13.85;3.80;;;26.20;91.90;;;;;;5033797;28;20602;-83
2022/08/25 06:54:00;;;;;;;7.78;3.70;;;26.00;92.40;;;;;;5016402;28;20173;-84
2022/08/25 06:56:26;;;;;;;14.57;3.90;;;26.10;91.80;;;;;;5016395;28;20638;-84
2022/08/25 06:58:51;;;;;;;7.13;3.72;;;26.70;91.80;;;;;;5034183;28;20177;-83
2022/08/25 07:01:24;;;;;;;7.95;4.15;;;26.70;92.10;;;;;;5039945;22;20206;-81
2022/08/25 07:03:50;;;;;;;6.50;3.78;;;26.50;91.30;;;;;;5033476;28;20174;-81
2022/08/25 07:06:19;;;;;;;7.88;3.75;;;26.70;91.40;;;;;;5033597;28;20190;-80
2022/08/25 07:08:46;;;;;;;5.93;3.80;;;27.00;90.80;;;;;;5017850;28;20269;-80
2022/08/25 07:11:13;;;;;;;5.93;3.63;;;26.90;91.50;;;;;;5016925;28;20185;-80
2022/08/25 07:13:39;;;;;;;7.80;4.22;;;26.70;91.00;;;;;;5018093;28;20629;-80
2022/08/25 07:16:06;;;;;;;11.45;4.20;;;27.00;91.80;;;;;;5016213;28;20642;-80
2022/08/25 07:18:33;;;;;;;13.52;4.45;;;27.00;91.40;;;;;;5014534;28;20181;-80
2022/08/25 07:20:59;;;;;;;5.97;3.65;;;27.70;91.10;;;;;;5015962;28;20208;-80
2022/08/25 07:23:26;;;;;;;7.05;3.78;;;28.10;91.30;;;;;;5017223;28;20541;-80
2022/08/25 07:25:53;;;;;;;8.52;4.00;;;27.80;91.00;;;;;;5016935;28;20684;-81
2022/08/25 07:28:20;;;;;;;9.50;3.80;;;27.70;90.90;;;;;;5016819;28;20209;-81
2022/08/25 07:30:45;;;;;;;5.75;3.88;;;28.30;90.40;;;;;;5015472;28;20170;-80
2022/08/25 07:33:11;;;;;;;12.65;3.85;;;27.80;90.70;;;;;;5015706;28;20236;-81
2022/08/25 07:35:37;;;;;;;10.73;3.60;;;27.40;90.90;;;;;;5016653;28;20536;-81
2022/08/25 07:38:05;;;;;;;5.47;3.78;;;27.70;91.60;;;;;;5015929;28;20205;-81
2022/08/25 07:40:36;;;;;;;7.47;4.22;;;28.30;91.00;;;;;;5016665;28;20201;-81
2022/08/25 07:43:09;;;;;;;10.13;4.15;;;28.30;91.20;;;;;;5016076;28;20177;-80
2022/08/25 07:45:38;;;;;;;7.72;4.03;;;27.50;90.60;;;;;;5034241;28;20307;-80
2022/08/25 07:48:10;;;;;;;6.18;4.25;;;27.80;90.70;;;;;;5016760;28;20198;-82
2022/08/25 07:50:41;;;;;;;9.15;4.30;;;27.90;91.20;;;;;;5015708;28;20205;-81
2022/08/25 07:53:07;;;;;;;9.80;4.45;;;28.70;90.20;;;;;;5019300;28;20201;-82
2022/08/25 07:55:35;;;;;;;6.40;4.00;;;28.80;90.00;;;;;;5019529;28;20166;-83
2022/08/25 07:58:02;;;;;;;7.00;3.92;;;28.90;90.10;;;;;;5018553;28;20174;-84
2022/08/25 08:00:31;;;;;;;9.43;4.50;;;28.70;89.80;;;;;;5017668;28;20205;-82
2022/08/25 08:02:57;;;;;;;7.93;4.00;;;28.40;90.30;;;;;;5018698;28;20220;-82
2022/08/25 08:05:27;;;;;;;4.38;3.85;;;29.20;90.50;;;;;;5016663;28;20556;-82
2022/08/25 08:07:54;;;;;;;10.43;4.07;;;29.10;90.40;;;;;;5016577;28;20206;-83
2022/08/25 08:10:20;;;;;;;10.48;4.05;;;29.60;89.40;;;;;;5018530;28;20186;-82
2022/08/25 08:12:46;;;;;;;13.95;4.75;;;30.10;90.00;;;;;;5018584;28;20688;-83
2022/08/25 08:15:11;;;;;;;11.68;4.47;;;29.90;89.00;;;;;;5018878;28;20166;-82
2022/08/25 08:17:38;;;;;;;6.15;3.95;;;29.50;89.20;;;;;;5031742;28;20216;-83
2022/08/25 08:20:07;;;;;;;11.30;4.43;;;30.00;90.00;;;;;;5019383;28;20177;-80
2022/08/25 08:22:38;;;;;;;10.23;4.10;;;30.10;89.50;;;;;;5018658;28;20177;-83
2022/08/25 08:25:04;;;;;;;7.80;4.10;;;30.40;87.80;;;;;;5026942;28;20987;-84
2022/08/25 08:27:30;;;;;;;6.80;4.15;;;30.50;88.90;;;;;;5037690;28;20198;-81
2022/08/25 08:29:55;;;;;;;9.38;4.38;;;30.10;88.10;;;;;;5036853;28;20539;-81
2022/08/25 08:32:21;;;;;;;8.82;4.18;;;30.40;88.40;;;;;;5037295;28;20213;-84
2022/08/25 08:34:47;;;;;;;7.63;4.32;;;30.30;87.30;;;;;;5018025;28;20185;-84
2022/08/25 08:37:13;;;;;;;10.05;4.93;;;30.40;88.00;;;;;;5019233;28;20198;-84
2022/08/25 08:39:39;;;;;;;9.82;4.32;;;30.30;88.60;;;;;;5017454;28;20665;-84
2022/08/25 08:42:23;;;;;;;12.55;3.90;;;30.70;88.60;;;;;;5018224;28;20178;-86
2022/08/25 08:45:14;;;;;;;8.68;4.20;;;30.10;88.10;;;;;;5017537;28;20189;-84
2022/08/25 08:48:01;;;;;;;7.30;4.18;;;30.20;87.20;;;;;;5018032;28;20217;-84
2022/08/25 08:50:46;;;;;;;7.53;4.25;;;30.00;87.00;;;;;;5016817;28;20632;-83
2022/08/25 08:53:37;;;;;;;12.63;4.35;;;29.80;87.50;;;;;;5017082;28;20170;-84
2022/08/25 08:56:10;;;;;;;7.13;4.05;;;30.50;87.50;;;;;;5034855;28;20193;-84
2022/08/25 08:58:47;;;;;;;6.13;4.10;;;30.50;87.50;;;;;;5018591;28;20529;-84
2022/08/25 09:01:22;;;;;;;7.80;4.28;;;30.90;86.30;;;;;;5017516;28;20166;-84
2022/08/25 09:04:34;;;;;;;13.02;4.13;;;31.20;86.50;;;;;;5015773;28;20272;-84
2022/08/25 09:07:06;;;;;;;8.68;4.20;;;30.60;86.40;;;;;;5006785;28;20692;-84
2022/08/25 09:09:34;;;;;;;6.20;4.05;;;31.10;85.60;;;;;;5017442;28;20170;-85
2022/08/25 09:12:15;;;;;;;10.00;4.00;;;31.40;85.40;;;;;;5016908;28;20178;-83
2022/08/25 09:15:04;;;;;;;9.48;4.10;;;31.10;86.10;;;;;;5016548;28;20679;-82
2022/08/25 09:17:44;;;;;;;10.80;4.20;;;32.10;85.00;;;;;;5016400;28;20193;-82
2022/08/25 09:20:37;;;;;;;4.55;4.10;;;30.50;84.90;;;;;;5017053;28;20170;-82
2022/08/25 09:23:19;;;;;;;8.23;3.97;;;29.90;85.70;;;;;;5017991;28;20174;-83
2022/08/25 09:26:00;;;;;;;8.05;4.10;;;30.00;85.70;;;;;;5022174;28;20209;-83
2022/08/25 09:28:48;;;;;;;6.28;4.40;;;30.60;85.20;;;;;;5019027;28;20197;-82
2022/08/25 09:31:30;;;;;;;6.38;4.05;;;30.40;86.00;;;;;;5017224;28;20163;-83
2022/08/25 09:34:00;;;;;;;5.38;4.00;;;30.50;84.40;;;;;;5017113;28;20170;-84
2022/08/25 09:36:25;;;;;;;8.57;4.00;;;30.80;84.60;;;;;;5022484;28;20194;-84
2022/08/25 09:38:52;;;;;;;8.98;4.20;;;31.10;85.30;;;;;;5021714;28;20177;-84
2022/08/25 09:41:41;;;;;;;6.60;3.97;;;31.30;84.00;;;;;;5023402;28;20180;-82
2022/08/25 09:44:21;;;;;;;5.28;3.40;;;31.20;84.10;;;;;;5022197;28;20169;-83
2022/08/25 09:47:12;;;;;;;8.23;3.65;;;31.40;83.60;;;;;;5021307;28;20204;-83
2022/08/25 09:49:47;;;;;;;17.85;4.50;;;31.80;82.90;;;;;;5021783;28;20840;-84
2022/08/25 09:52:25;;;;;;;12.00;3.65;;;31.90;82.70;;;;;;5021118;28;20205;-82
2022/08/25 09:54:53;;;;;;;5.45;3.05;;;31.70;81.50;;;;;;5021919;28;20182;-81
2022/08/25 09:57:29;;;;;;;10.57;3.75;;;30.90;81.70;;;;;;5018727;28;20198;-81
2022/08/25 09:59:55;;;;;;;6.85;4.07;;;31.40;82.30;;;;;;5019559;28;20178;-81
2022/08/25 10:02:27;;;;;;;5.53;3.10;;;31.60;81.70;;;;;;5019312;28;20189;-81
2022/08/25 10:04:53;;;;;;;6.18;3.20;;;31.70;79.00;;;;;;5018375;28;20178;-81
2022/08/25 10:07:24;;;;;;;7.28;3.95;;;31.10;80.40;;;;;;5018562;28;20202;-81
2022/08/25 10:09:59;;;;;;;10.10;4.03;;;31.10;80.40;;;;;;5018277;28;20205;-81
2022/08/25 10:12:39;;;;;;;5.72;3.42;;;31.90;81.50;;;;;;5018008;28;20642;-82
2022/08/25 10:15:23;;;;;;;8.95;3.38;;;31.90;80.10;;;;;;5017540;28;20220;-81
2022/08/25 10:17:49;;;;;;;10.13;3.60;;;31.50;80.50;;;;;;5018686;28;20269;-83
2022/08/25 10:20:25;;;;;;;5.65;4.10;;;31.70;80.90;;;;;;5018911;28;20205;-82
2022/08/25 10:22:52;;;;;;;5.78;3.85;;;31.10;81.50;;;;;;5016649;28;20234;-81
2022/08/25 10:25:28;;;;;;;6.32;4.00;;;31.40;80.40;;;;;;5016001;28;20174;-82
2022/08/25 10:28:16;;;;;;;17.92;3.80;;;32.10;81.00;;;;;;5033454;28;20193;-83
2022/08/25 10:30:58;;;;;;;5.97;3.55;;;32.60;79.50;;;;;;5016826;28;20273;-83
2022/08/25 10:33:32;;;;;;;5.07;3.78;;;32.20;78.00;;;;;;5034320;28;20246;-82
2022/08/25 10:36:26;;;;;;;9.48;4.20;;;32.80;78.50;;;;;;5016095;28;20224;-82
2022/08/25 10:38:59;;;;;;;7.68;4.72;;;32.60;78.90;;;;;;5015868;28;20257;-81
2022/08/25 10:41:33;;;;;;;5.70;4.47;;;32.00;80.50;;;;;;5014359;28;20180;-81
2022/08/25 10:43:59;;;;;;;8.90;4.28;;;31.10;81.00;;;;;;5014714;28;20532;-81
2022/08/25 10:46:37;;;;;;;5.18;3.90;;;31.40;80.90;;;;;;5014428;28;20197;-81
2022/08/25 10:49:18;;;;;;;8.05;4.20;;;31.20;80.70;;;;;;5014555;28;20174;-80
2022/08/25 10:52:00;;;;;;;8.88;4.72;;;31.90;80.50;;;;;;5014429;28;20626;-79
2022/08/25 10:55:00;;;;;;;7.25;3.80;;;31.70;80.00;;;;;;5014938;28;20174;-79
2022/08/25 10:57:29;;;;;;;7.68;3.90;;;31.40;80.00;;;;;;5014527;28;20217;-79
2022/08/25 11:00:08;;;;;;;5.93;3.92;;;32.30;79.10;;;;;;5014441;28;20178;-79
2022/08/25 11:02:49;;;;;;;6.35;3.67;;;32.60;80.40;;;;;;5014182;28;20205;-79
2022/08/25 11:05:23;;;;;;;5.18;3.67;;;32.80;77.90;;;;;;5014646;28;20542;-79
2022/08/25 11:07:54;;;;;;;6.07;3.60;;;32.10;79.00;;;;;;5014590;28;20669;-79
2022/08/25 11:10:38;;;;;;;8.52;3.85;;;32.70;78.50;;;;;;5014777;28;20184;-81
2022/08/25 11:13:12;;;;;;;6.68;4.07;;;33.10;76.40;;;;;;5032604;28;20166;-82
2022/08/25 11:15:52;;;;;;;6.18;3.63;;;32.90;76.10;;;;;;5015236;28;20190;-82
2022/08/25 11:18:19;;;;;;;8.35;4.13;;;34.50;75.60;;;;;;5015409;28;20179;-81
2022/08/25 11:20:52;;;;;;;5.13;3.67;;;34.30;76.10;;;;;;5014483;28;20181;-82
2022/08/25 11:23:21;;;;;;;8.27;3.97;;;32.50;78.10;;;;;;5015185;28;20178;-81
2022/08/25 11:25:51;;;;;;;5.88;4.30;;;32.40;78.60;;;;;;5014481;28;20216;-82
2022/08/25 11:28:39;;;;;;;7.75;3.70;;;33.20;78.40;;;;;;5018442;28;20217;-82
2022/08/25 11:31:07;;;;;;;7.75;4.20;;;32.10;78.60;;;;;;5018530;28;20715;-82
2022/08/25 11:33:33;;;;;;;9.82;4.07;;;32.10;78.50;;;;;;5018980;28;20545;-82
2022/08/25 11:36:04;;;;;;;7.80;4.00;;;31.80;80.00;;;;;;5019466;28;20285;-82
2022/08/25 11:38:46;;;;;;;6.57;4.00;;;32.10;78.60;;;;;;5019056;28;20178;-82
2022/08/25 11:41:20;;;;;;;7.20;3.88;;;32.20;78.30;;;;;;5019347;28;20626;-82
2022/08/25 11:44:05;;;;;;;9.07;4.63;;;32.40;78.00;;;;;;5019914;28;20170;-82
2022/08/25 11:46:51;;;;;;;6.88;3.67;;;32.20;78.10;;;;;;5019121;28;20193;-82
2022/08/25 11:49:50;;;;;;;3.83;3.53;;;32.70;77.00;;;;;;5020020;28;20236;-82
2022/08/25 11:52:31;;;;;;;9.50;3.55;;;31.80;77.20;;;;;;5018900;28;20581;-82
2022/08/25 11:55:26;;;;;;;8.30;4.53;;;32.30;76.70;;;;;;5019598;28;20631;-81
2022/08/25 11:58:11;;;;;;;8.55;3.97;;;33.30;76.10;;;;;;5019104;28;20178;-81
2022/08/25 12:00:41;;;;;;;7.63;3.95;;;34.50;74.40;;;;;;5003080;28;20545;-81
2022/08/25 12:03:31;;;;;;;10.07;5.18;;;34.70;74.90;;;;;;5037859;28;20185;-81
2022/08/25 12:06:17;;;;;;;6.82;4.65;;;33.90;75.30;;;;;;5019713;28;20562;-81
2022/08/25 12:08:51;;;;;;;6.10;4.38;;;33.20;76.90;;;;;;5019379;28;20206;-82
2022/08/25 12:11:43;;;;;;;10.00;4.00;;;32.50;77.00;;;;;;5018901;28;20176;-81
2022/08/25 12:14:21;;;;;;;9.43;4.20;;;32.40;76.80;;;;;;5019074;28;20523;-82
2022/08/25 12:16:53;;;;;;;10.98;4.05;;;33.00;76.60;;;;;;5019066;28;20287;-81
2022/08/25 12:19:28;;;;;;;6.65;4.00;;;33.20;75.50;;;;;;5036941;28;20165;-81
2022/08/25 12:22:01;;;;;;;7.38;3.72;;;32.70;77.80;;;;;;5018544;28;20166;-82
2022/08/25 12:24:42;;;;;;;6.38;3.85;;;33.20;76.80;;;;;;5019383;28;20241;-82
2022/08/25 12:27:57;;;;;;;8.00;4.40;;;33.20;76.10;;;;;;5019061;28;20638;-81
2022/08/25 12:30:45;;;;;;;7.35;4.10;;;32.80;76.60;;;;;;4948531;28;20560;-82
2022/08/25 12:33:29;;;;;;;10.05;4.80;;;32.50;76.40;;;;;;5018663;28;20166;-81
2022/08/25 12:36:05;;;;;;;8.18;4.82;;;31.80;78.00;;;;;;5018241;28;20201;-82
2022/08/25 12:38:30;;;;;;;11.82;4.88;;;31.50;79.40;;;;;;5018171;28;20196;-81
2022/08/25 12:41:22;;;;;;;7.97;4.95;;;31.20;79.50;;;;;;5018316;28;20170;-82
2022/08/25 12:43:50;;;;;;;9.15;5.18;;;31.10;78.90;;;;;;5018166;28;20185;-82
2022/08/25 12:46:24;;;;;;;9.68;4.88;;;31.40;78.90;;;;;;5018201;28;20217;-81
2022/08/25 12:48:59;;;;;;;8.82;4.90;;;31.40;78.80;;;;;;5017981;28;20214;-82
2022/08/25 12:52:15;;;;;;;9.30;5.00;;;31.20;77.70;;;;;;5018380;28;20266;-81
2022/08/25 12:54:44;;;;;;;8.98;5.45;;;31.30;78.40;;;;;;4986302;28;20207;-82
2022/08/25 12:57:42;;;;;;;8.60;5.30;;;31.30;79.50;;;;;;5018247;28;20225;-82
2022/08/25 13:00:20;;;;;;;8.82;5.47;;;30.90;79.60;;;;;;5017639;28;20213;-82
2022/08/25 13:03:18;;;;;;;22.20;6.38;;;30.80;79.00;;;;;;5018005;28;20654;-81
2022/08/25 13:06:08;;;;;;;6.13;4.95;;;31.00;80.30;;;;;;5018024;28;20202;-82